createdAt,value
2019-02-02T01:25:42.889Z,104.40
2019-02-02T01:37:22.338Z,113.45
2019-02-02T02:21:38.704Z,115.40
2019-02-02T02:24:22.050Z,122.85
2019-02-02T02:31:10.371Z,122.00
2019-02-02T03:09:19.585Z,126.80
2019-02-02T04:57:40.540Z,162.50
2019-02-02T05:46:49.936Z,146.93
2019-02-02T05:54:38.028Z,151.00
2019-02-02T06:05:36.429Z,159.67
2019-02-02T06:16:42.735Z,149.60
2019-02-02T06:21:12.819Z,148.68
2019-02-02T06:31:23.694Z,158.03
2019-02-02T06:52:39.443Z,144.15
2019-02-02T07:07:38.618Z,142.95
2019-02-02T08:18:16.179Z,120.37
2019-02-02T08:20:47.772Z,123.03
2019-02-02T08:23:31.773Z,127.47
2019-02-02T08:26:22.409Z,128.67
2019-02-02T08:28:58.402Z,125.83
2019-02-02T08:31:35.679Z,121.63
2019-02-02T08:34:34.321Z,128.13
2019-02-02T08:37:46.676Z,130.90
2019-02-02T08:39:59.419Z,116.93
2019-02-02T08:42:45.421Z,130.20
2019-02-02T08:45:26.170Z,127.93
2019-02-02T08:48:10.961Z,127.17
2019-02-02T08:58:31.619Z,132.57
2019-02-02T09:12:10.233Z,122.83
2019-02-02T09:15:27.836Z,119.40
2019-02-02T09:25:10.769Z,123.27
2019-02-02T09:28:35.305Z,119.90
2019-02-02T09:31:57.143Z,114.20
2019-02-02T09:38:21.135Z,212.70
2019-02-02T09:40:49.809Z,122.93
2019-02-02T09:43:22.096Z,119.13
2019-02-02T09:45:53.012Z,122.17
2019-02-02T09:48:25.372Z,118.13
2019-02-02T09:50:54.258Z,116.27
2019-02-02T09:53:22.908Z,129.10
2019-02-02T09:55:51.554Z,117.20
2019-02-02T09:58:20.481Z,128.80
2019-02-02T10:00:49.245Z,133.63
2019-02-02T10:03:17.990Z,125.63
2019-02-02T10:05:48.692Z,127.23
2019-02-02T10:08:17.461Z,136.77
2019-02-02T10:10:46.475Z,127.53
2019-02-02T10:13:17.200Z,115.80
2019-02-02T10:15:46.997Z,124.33
2019-02-02T10:18:15.734Z,117.90
2019-02-02T10:20:44.632Z,114.07
2019-02-02T10:23:13.928Z,121.33
2019-02-02T10:25:42.929Z,117.00
2019-02-02T10:28:14.097Z,114.77
2019-02-02T10:30:43.911Z,110.33
2019-02-02T10:33:14.083Z,108.57
2019-02-02T10:35:43.020Z,114.83
2019-02-02T10:38:11.772Z,108.33
2019-02-02T10:40:40.808Z,105.27
2019-02-02T10:43:12.165Z,109.83
2019-02-02T10:45:40.847Z,113.53
2019-02-02T10:48:09.839Z,106.13
2019-02-02T10:50:38.858Z,108.50
2019-02-02T10:53:08.444Z,116.20
2019-02-02T10:55:39.210Z,120.03
2019-02-02T10:58:10.496Z,107.93
2019-02-02T11:00:40.938Z,109.87
2019-02-02T11:03:09.641Z,111.13
2019-02-02T11:05:38.904Z,107.67
2019-02-02T11:08:09.415Z,99.20
2019-02-02T11:10:40.531Z,112.90
2019-02-02T11:13:09.893Z,109.70
2019-02-02T11:15:40.072Z,114.50
2019-02-02T11:18:08.878Z,116.73
2019-02-02T11:20:39.309Z,118.73
2019-02-02T11:23:08.046Z,134.77
2019-02-02T11:25:37.428Z,132.67
2019-02-02T11:28:06.300Z,128.03
2019-02-02T11:30:35.554Z,133.20
2019-02-02T11:33:04.668Z,131.77
2019-02-02T11:35:33.398Z,154.37
2019-02-02T11:38:02.472Z,132.73
2019-02-02T11:40:32.657Z,134.03
2019-02-02T11:43:01.672Z,135.43
2019-02-02T11:45:30.665Z,134.57
2019-02-02T11:47:59.549Z,127.37
2019-02-02T11:50:28.447Z,146.67
2019-02-02T11:52:57.717Z,122.37
2019-02-02T11:55:26.546Z,129.63
2019-02-02T11:57:55.437Z,119.63
2019-02-02T12:00:44.882Z,119.43
2019-02-02T12:03:14.006Z,117.03
2019-02-02T12:05:42.873Z,116.17
2019-02-02T12:08:11.852Z,116.33
2019-02-02T12:10:40.956Z,114.60
2019-02-02T12:13:09.968Z,116.80
2019-02-02T12:15:38.747Z,106.67
2019-02-02T12:18:16.816Z,99.53
2019-02-02T12:28:37.692Z,99.57
2019-02-02T12:31:02.178Z,106.97
2019-02-02T12:33:33.438Z,98.77
2019-02-02T12:36:02.326Z,96.93
2019-02-02T12:38:31.008Z,101.80
2019-02-02T12:40:59.944Z,86.83
2019-02-02T12:43:29.351Z,93.70
2019-02-02T12:46:03.204Z,94.53
2019-02-02T12:48:33.530Z,98.00
2019-02-02T12:51:02.492Z,97.80
2019-02-02T12:53:31.419Z,88.27
2019-02-02T12:56:00.413Z,91.53
2019-02-02T12:58:29.528Z,94.17
2019-02-02T13:00:58.196Z,89.53
2019-02-02T13:03:31.797Z,88.43
2019-02-02T13:06:00.510Z,89.10
2019-02-02T13:08:31.153Z,83.27
2019-02-02T13:11:01.165Z,89.73
2019-02-02T13:13:31.570Z,91.33
2019-02-02T13:16:06.099Z,87.93
2019-02-02T13:18:36.808Z,88.40
2019-02-02T13:21:05.638Z,83.77
2019-02-02T13:23:34.590Z,81.40
2019-02-02T13:26:05.420Z,93.33
2019-02-02T13:28:35.034Z,91.40
2019-02-02T13:31:03.922Z,77.70
2019-02-02T13:33:32.918Z,77.77
2019-02-02T13:36:01.829Z,78.90
2019-02-02T13:38:31.976Z,71.73
2019-02-02T13:41:00.969Z,74.13
2019-02-02T13:43:29.978Z,73.47
2019-02-02T13:45:59.036Z,72.90
2019-02-02T13:48:28.049Z,72.20
2019-02-02T13:50:56.986Z,70.27
2019-02-02T13:53:29.348Z,77.63
2019-02-02T13:55:58.567Z,66.13
2019-02-02T13:58:27.561Z,68.77
2019-02-02T14:00:56.755Z,74.00
2019-02-02T14:03:25.757Z,72.27
2019-02-02T14:05:54.752Z,68.27
2019-02-02T14:08:23.712Z,67.20
2019-02-02T14:10:52.369Z,67.03
2019-02-02T14:13:21.031Z,65.50
2019-02-02T14:15:49.981Z,64.03
2019-02-02T14:18:18.948Z,59.90
2019-02-02T14:20:47.864Z,60.80
2019-02-02T14:23:16.502Z,57.57
2019-02-02T14:25:45.610Z,55.40
2019-02-02T14:28:14.259Z,56.77
2019-02-02T14:30:42.888Z,50.30
2019-02-02T14:33:14.395Z,44.77
2019-02-02T14:35:41.902Z,49.67
2019-02-02T14:38:10.855Z,46.00
2019-02-02T14:40:39.707Z,37.70
2019-02-02T14:43:08.639Z,44.97
2019-02-02T14:45:37.538Z,44.97
2019-02-02T14:48:06.532Z,46.43
2019-02-02T14:50:35.434Z,41.10
2019-02-02T14:53:04.703Z,42.63
2019-02-02T14:55:33.888Z,35.60
2019-02-02T14:58:02.622Z,41.83
2019-02-02T15:00:31.573Z,48.83
2019-02-02T15:03:03.270Z,37.80
2019-02-02T15:05:42.527Z,44.53
2019-02-02T15:08:07.608Z,44.83
2019-02-02T15:10:38.019Z,47.53
2019-02-02T15:13:08.068Z,44.27
2019-02-02T15:16:26.313Z,47.23
2019-02-02T15:33:04.050Z,47.50
2019-02-02T15:35:34.062Z,43.47
2019-02-02T15:38:03.113Z,41.13
2019-02-02T15:40:35.144Z,40.30
2019-02-02T15:46:55.294Z,40.87
2019-02-02T15:49:24.443Z,38.67
2019-02-02T15:51:53.641Z,41.00
2019-02-02T15:54:22.290Z,38.10
2019-02-02T15:56:51.210Z,42.90
2019-02-02T15:59:20.100Z,44.70
2019-02-02T16:01:48.997Z,42.57
2019-02-02T16:04:17.622Z,45.83
2019-02-02T16:06:46.258Z,36.80
2019-02-02T16:09:14.902Z,45.10
2019-02-02T16:11:46.136Z,46.60
2019-02-02T16:14:14.982Z,41.07
2019-02-02T16:16:44.148Z,43.77
2019-02-02T16:19:13.040Z,44.17
2019-02-02T16:21:41.970Z,35.87
2019-02-02T16:24:10.872Z,33.70
2019-02-02T16:26:39.531Z,37.53
2019-02-02T16:29:14.532Z,35.03
2019-02-02T16:31:43.566Z,35.57
2019-02-02T16:34:12.291Z,35.27
2019-02-02T16:36:41.516Z,34.07
2019-02-02T16:39:10.301Z,36.97
2019-02-02T16:41:39.010Z,32.10
2019-02-02T16:44:07.708Z,31.90
2019-02-02T16:46:36.521Z,33.87
2019-02-02T16:49:05.329Z,30.83
2019-02-02T16:51:34.241Z,31.03
2019-02-02T16:54:03.203Z,33.97
2019-02-02T16:56:32.342Z,32.30
2019-02-02T16:59:01.589Z,28.00
2019-02-02T17:01:30.354Z,27.52
2019-02-02T17:03:59.007Z,29.17
2019-02-02T17:06:27.900Z,26.53
2019-02-02T17:08:56.558Z,24.40
2019-02-02T17:11:25.200Z,24.60
2019-02-02T17:13:56.163Z,25.83
2019-02-02T17:16:25.341Z,23.90
2019-02-02T17:18:54.234Z,26.33
2019-02-02T17:21:22.958Z,23.37
2019-02-02T17:23:51.859Z,22.23
2019-02-02T17:26:20.740Z,19.03
2019-02-02T17:28:49.384Z,24.13
2019-02-02T17:31:18.951Z,21.23
2019-02-02T17:33:47.624Z,23.77
2019-02-02T17:36:16.372Z,26.17
2019-02-02T17:38:45.263Z,26.37
2019-02-02T17:41:14.141Z,27.63
2019-02-02T17:43:43.415Z,24.83
2019-02-02T17:46:12.274Z,23.77
2019-02-02T17:48:40.890Z,20.40
2019-02-02T17:51:09.716Z,18.77
2019-02-02T17:53:38.336Z,21.50
2019-02-02T17:56:07.049Z,19.53
2019-02-02T17:58:39.613Z,22.73
2019-02-02T18:01:06.601Z,18.90
2019-02-02T18:03:35.299Z,18.40
2019-02-02T18:06:04.821Z,20.97
2019-02-02T18:08:33.482Z,21.37
2019-02-02T18:11:02.191Z,18.27
2019-02-02T18:13:30.833Z,20.00
2019-02-02T18:15:59.825Z,19.80
2019-02-02T18:18:29.475Z,18.97
2019-02-02T18:20:58.412Z,20.33
2019-02-02T18:23:27.583Z,19.20
2019-02-02T18:25:56.453Z,19.73
2019-02-02T18:28:25.115Z,17.73
2019-02-02T18:30:54.030Z,19.67
2019-02-02T18:33:22.908Z,17.80
2019-02-02T18:35:52.068Z,19.93
2019-02-02T18:38:21.059Z,18.53
2019-02-02T18:40:49.748Z,19.60
2019-02-02T18:43:18.663Z,22.17
2019-02-02T18:45:47.277Z,24.30
2019-02-02T18:48:16.283Z,22.70
2019-02-02T18:50:45.237Z,22.83
2019-02-02T18:53:14.176Z,26.10
2019-02-02T18:55:49.327Z,31.97
2019-02-02T18:58:18.005Z,26.47
2019-02-02T19:00:46.984Z,22.47
2019-02-02T19:03:15.982Z,22.13
2019-02-02T19:05:45.236Z,25.00
2019-02-02T19:08:13.926Z,25.82
2019-02-02T19:10:43.005Z,26.27
2019-02-02T19:13:11.983Z,25.97
2019-02-02T19:15:40.668Z,28.30
2019-02-02T19:18:09.891Z,27.90
2019-02-02T19:20:38.588Z,31.23
2019-02-02T19:23:07.611Z,31.37
2019-02-02T19:25:36.749Z,33.07
2019-02-02T19:28:07.309Z,33.70
2019-02-02T19:30:36.036Z,35.03
2019-02-02T19:33:05.111Z,32.37
2019-02-02T19:35:34.024Z,34.43
2019-02-02T19:38:03.063Z,41.50
2019-02-02T19:40:32.076Z,47.60
2019-02-02T19:43:00.970Z,39.10
2019-02-02T19:45:29.693Z,47.83
2019-02-02T19:48:03.006Z,43.93
2019-02-02T19:50:32.067Z,41.13
2019-02-02T19:53:00.857Z,48.00
2019-02-02T19:55:31.814Z,48.20
2019-02-02T19:58:00.652Z,42.77
2019-02-02T20:00:31.007Z,47.27
2019-02-02T20:03:00.018Z,50.07
2019-02-02T20:05:29.335Z,48.23
2019-02-02T20:07:58.266Z,48.87
2019-02-02T20:10:27.013Z,51.50
2019-02-02T20:12:56.215Z,54.90
2019-02-02T20:15:25.831Z,52.20
2019-02-02T20:17:54.775Z,51.10
2019-02-02T20:20:25.156Z,53.20
2019-02-02T20:22:54.603Z,54.77
2019-02-02T20:25:23.622Z,63.23
2019-02-02T20:27:52.593Z,68.20
2019-02-02T20:30:23.181Z,69.80
2019-02-02T20:32:53.047Z,69.03
2019-02-02T20:35:22.236Z,64.80
2019-02-02T20:37:51.244Z,64.07
2019-02-02T20:40:21.289Z,72.33
2019-02-02T20:42:50.136Z,63.93
2019-02-02T20:45:21.581Z,63.17
2019-02-02T20:47:50.422Z,65.57
2019-02-02T20:50:19.585Z,67.37
2019-02-02T20:52:48.683Z,68.40
2019-02-02T20:55:19.867Z,75.47
2019-02-02T20:57:48.923Z,74.13
2019-02-02T21:00:19.775Z,71.53
2019-02-02T21:02:49.275Z,68.23
2019-02-02T21:05:18.399Z,73.60
2019-02-02T21:07:47.617Z,72.77
2019-02-02T21:10:18.152Z,67.23
2019-02-02T21:12:47.199Z,70.37
2019-02-02T21:15:15.969Z,68.53
2019-02-02T21:17:44.893Z,65.40
2019-02-02T21:20:18.972Z,65.70
2019-02-02T21:22:48.360Z,61.00
2019-02-02T21:25:18.051Z,65.23
2019-02-02T21:27:48.235Z,60.73
2019-02-02T21:30:22.336Z,63.20
2019-02-02T21:32:51.237Z,62.23
2019-02-02T21:35:20.778Z,53.80
2019-02-02T21:37:50.145Z,60.50
2019-02-02T21:40:21.187Z,63.53
2019-02-02T21:42:50.482Z,58.67
2019-02-02T21:45:20.350Z,59.60
2019-02-02T21:47:49.698Z,55.93
2019-02-02T21:50:21.314Z,57.60
2019-02-02T21:52:51.713Z,55.03
2019-02-02T21:55:22.623Z,59.43
2019-02-02T21:57:51.587Z,62.73
2019-02-02T22:00:31.524Z,67.50
2019-02-02T22:03:00.619Z,57.33
2019-02-02T22:05:29.605Z,70.03
2019-02-02T22:07:58.585Z,58.63
2019-02-02T22:31:11.740Z,68.80
2019-02-02T22:37:59.770Z,61.87
2019-02-02T22:44:14.783Z,63.20
2019-02-02T22:46:43.469Z,64.17
2019-02-02T22:53:05.777Z,65.03
2019-02-02T22:59:35.858Z,60.17
2019-02-02T23:02:51.607Z,59.43
2019-02-02T23:23:13.452Z,51.20
2019-02-02T23:25:42.410Z,47.47
2019-02-02T23:28:52.797Z,53.70
2019-02-02T23:31:22.361Z,46.23
